createdAt,value
2023-03-17T00:01:09.829Z,0.20
2023-03-17T00:03:40.388Z,0.20
2023-03-17T00:06:12.113Z,0.20
2023-03-17T00:08:38.724Z,0.20
2023-03-17T00:11:06.529Z,0.10
2023-03-17T00:13:33.404Z,0.20
2023-03-17T00:16:02.260Z,0.20
2023-03-17T00:18:31.629Z,0.20
2023-03-17T00:20:58.886Z,0.20
2023-03-17T00:23:25.542Z,0.20
2023-03-17T00:25:53.579Z,0.30
2023-03-17T00:28:24.014Z,0.87
2023-03-17T00:30:59.269Z,0.20
2023-03-17T00:33:33.135Z,0.20
2023-03-17T00:35:59.908Z,0.20
2023-03-17T00:38:26.531Z,0.20
2023-03-17T00:40:53.142Z,0.20
2023-03-17T00:43:19.817Z,0.20
2023-03-17T00:45:47.053Z,0.20
2023-03-17T00:48:20.860Z,0.20
2023-03-17T00:50:49.788Z,0.20
2023-03-17T00:53:18.732Z,0.20
2023-03-17T00:55:45.770Z,0.30
2023-03-17T00:58:24.558Z,0.20
2023-03-17T01:00:52.275Z,0.20
2023-03-17T01:03:19.729Z,0.30
2023-03-17T01:05:47.099Z,0.20
2023-03-17T01:08:15.032Z,0.20
2023-03-17T01:10:42.729Z,0.20
2023-03-17T01:13:12.100Z,0.20
2023-03-17T01:15:42.815Z,0.20
2023-03-17T01:18:10.487Z,0.20
2023-03-17T01:20:37.019Z,0.10
2023-03-17T01:23:04.247Z,0.10
2023-03-17T01:25:31.580Z,0.20
2023-03-17T01:27:59.398Z,0.17
2023-03-17T01:30:30.061Z,0.20
2023-03-17T01:32:57.641Z,0.30
2023-03-17T01:35:25.843Z,0.30
2023-03-17T01:37:52.468Z,0.20
2023-03-17T01:40:23.395Z,0.20
2023-03-17T01:42:54.334Z,0.30
2023-03-17T01:45:59.462Z,0.30
2023-03-17T01:48:26.816Z,0.20
2023-03-17T01:50:53.830Z,0.10
2023-03-17T01:53:21.467Z,0.20
2023-03-17T01:55:48.664Z,0.20
2023-03-17T01:58:16.187Z,0.33
2023-03-17T02:00:44.059Z,0.20
2023-03-17T02:03:11.653Z,0.20
2023-03-17T02:05:39.662Z,0.23
2023-03-17T02:08:12.972Z,0.27
2023-03-17T02:10:41.045Z,0.10
2023-03-17T02:13:09.055Z,0.20
2023-03-17T02:15:40.782Z,0.20
2023-03-17T02:18:08.165Z,0.20
2023-03-17T02:20:34.666Z,0.30
2023-03-17T02:23:01.881Z,0.20
2023-03-17T02:25:30.822Z,0.20
2023-03-17T02:28:01.740Z,0.10
2023-03-17T02:30:29.121Z,0.20
2023-03-17T02:32:55.925Z,0.20
2023-03-17T02:35:23.479Z,0.10
2023-03-17T02:37:50.167Z,0.20
2023-03-17T02:40:16.797Z,0.20
2023-03-17T02:42:43.439Z,0.20
2023-03-17T02:45:11.687Z,0.20
2023-03-17T02:47:38.781Z,0.20
2023-03-17T02:50:06.993Z,0.20
2023-03-17T02:52:33.634Z,0.17
2023-03-17T02:55:00.328Z,0.20
2023-03-17T02:57:26.930Z,0.30
2023-03-17T02:59:53.676Z,0.20
2023-03-17T03:02:20.279Z,0.20
2023-03-17T03:04:46.867Z,0.40
2023-03-17T03:07:13.423Z,0.20
2023-03-17T03:09:40.038Z,0.30
2023-03-17T03:12:10.067Z,0.30
2023-03-17T03:14:36.846Z,0.20
2023-03-17T03:17:04.476Z,0.20
2023-03-17T03:19:31.208Z,0.30
2023-03-17T03:21:57.798Z,0.20
2023-03-17T03:24:24.419Z,0.20
2023-03-17T03:26:51.188Z,0.50
2023-03-17T03:29:18.488Z,0.20
2023-03-17T03:31:53.537Z,0.19
2023-03-17T03:34:20.152Z,2.03
2023-03-17T03:36:46.744Z,0.20
2023-03-17T03:39:14.570Z,0.20
2023-03-17T03:41:41.393Z,0.20
2023-03-17T03:44:07.967Z,6.10
2023-03-17T03:46:34.585Z,0.20
2023-03-17T03:49:01.380Z,0.20
2023-03-17T03:51:27.957Z,0.30
2023-03-17T03:53:54.531Z,0.20
2023-03-17T03:56:21.111Z,0.30
2023-03-17T03:58:47.693Z,0.20
2023-03-17T04:01:14.560Z,0.30
2023-03-17T04:03:41.355Z,0.30
2023-03-17T04:06:07.925Z,0.30
2023-03-17T04:08:34.631Z,0.40
2023-03-17T04:11:01.276Z,0.20
2023-03-17T04:13:28.103Z,0.20
2023-03-17T04:15:54.817Z,0.20
2023-03-17T04:18:21.424Z,0.10
2023-03-17T04:20:48.078Z,0.30
2023-03-17T04:23:14.672Z,0.20
2023-03-17T04:25:41.232Z,0.27
2023-03-17T04:28:09.078Z,0.30
2023-03-17T04:30:35.721Z,0.20
2023-03-17T04:33:02.459Z,0.20
2023-03-17T04:35:29.423Z,0.30
2023-03-17T04:37:56.077Z,0.20
2023-03-17T04:40:22.841Z,0.20
2023-03-17T04:42:49.431Z,0.63
2023-03-17T04:45:19.088Z,0.28
2023-03-17T04:47:48.560Z,0.20
2023-03-17T04:50:15.322Z,0.20
2023-03-17T04:52:42.246Z,0.30
2023-03-17T04:55:09.388Z,0.20
2023-03-17T04:57:36.722Z,0.30
2023-03-17T05:00:05.333Z,0.20
2023-03-17T05:02:32.049Z,0.30
2023-03-17T05:04:58.698Z,0.20
2023-03-17T05:07:25.274Z,0.80
2023-03-17T05:09:51.860Z,0.30
2023-03-17T05:12:18.431Z,0.20
2023-03-17T05:14:45.041Z,0.20
2023-03-17T05:17:11.984Z,0.30
2023-03-17T05:19:38.526Z,0.30
2023-03-17T05:22:05.304Z,0.47
2023-03-17T05:24:32.015Z,0.20
2023-03-17T05:26:58.694Z,0.30
2023-03-17T05:29:25.290Z,0.20
2023-03-17T05:31:52.117Z,0.20
2023-03-17T05:34:18.768Z,0.30
2023-03-17T05:36:46.459Z,0.20
2023-03-17T05:39:14.568Z,0.23
2023-03-17T05:41:41.616Z,0.40
2023-03-17T05:44:08.868Z,0.30
2023-03-17T05:46:35.556Z,0.20
2023-03-17T05:49:02.760Z,0.20
2023-03-17T05:51:29.554Z,0.20
2023-03-17T05:53:56.725Z,0.30
2023-03-17T05:56:24.189Z,0.30
2023-03-17T05:58:51.318Z,0.20
2023-03-17T06:01:18.007Z,0.30
2023-03-17T06:03:44.782Z,0.30
2023-03-17T06:06:12.537Z,4.13
2023-03-17T06:08:39.078Z,0.20
2023-03-17T06:11:05.807Z,0.30
2023-03-17T06:13:32.436Z,0.20
2023-03-17T06:15:59.062Z,0.20
2023-03-17T06:18:25.849Z,0.20
2023-03-17T06:20:52.588Z,0.20
2023-03-17T06:23:19.141Z,0.20
2023-03-17T06:25:45.781Z,0.30
2023-03-17T06:28:12.417Z,0.20
2023-03-17T06:30:40.713Z,0.27
2023-03-17T06:33:08.294Z,0.20
2023-03-17T06:35:35.507Z,0.20
2023-03-17T06:38:02.441Z,2.53
2023-03-17T06:40:29.274Z,0.30
2023-03-17T06:42:56.530Z,0.20
2023-03-17T06:45:23.335Z,1.13
2023-03-17T06:47:49.927Z,0.70
2023-03-17T06:50:16.522Z,0.20
2023-03-17T06:52:44.966Z,0.20
2023-03-17T06:55:12.929Z,0.20
2023-03-17T06:57:39.633Z,0.23
2023-03-17T07:00:07.017Z,0.20
2023-03-17T07:02:33.949Z,0.20
2023-03-17T07:05:01.182Z,0.20
2023-03-17T07:07:28.147Z,0.20
2023-03-17T07:09:54.849Z,0.27
2023-03-17T07:12:21.921Z,0.23
2023-03-17T07:14:48.583Z,0.27
2023-03-17T07:17:15.417Z,0.30
2023-03-17T07:19:42.431Z,0.20
2023-03-17T07:22:11.930Z,0.20
2023-03-17T07:24:38.868Z,0.50
2023-03-17T07:27:06.191Z,0.20
2023-03-17T07:29:36.000Z,0.10
2023-03-17T07:32:03.033Z,0.20
2023-03-17T07:34:29.555Z,0.20
2023-03-17T07:36:56.140Z,0.50
2023-03-17T07:39:22.751Z,0.13
2023-03-17T07:41:55.088Z,0.40
2023-03-17T07:44:23.159Z,0.20
2023-03-17T07:46:50.600Z,0.23
2023-03-17T07:49:20.929Z,0.20
2023-03-17T07:51:54.316Z,0.20
2023-03-17T07:54:21.248Z,0.20
2023-03-17T07:56:47.841Z,0.30
2023-03-17T07:59:15.400Z,0.20
2023-03-17T08:01:41.976Z,0.20
2023-03-17T08:04:10.863Z,0.30
2023-03-17T08:06:37.573Z,0.30
2023-03-17T08:09:04.318Z,0.20
2023-03-17T08:11:31.127Z,0.20
2023-03-17T08:13:57.906Z,0.20
2023-03-17T08:16:24.597Z,0.30
2023-03-17T08:18:51.235Z,0.20
2023-03-17T08:21:17.818Z,0.20
2023-03-17T08:23:44.401Z,0.30
2023-03-17T08:26:11.373Z,0.20
2023-03-17T08:28:38.468Z,0.20
2023-03-17T08:31:14.434Z,0.20
2023-03-17T08:33:42.407Z,0.20
2023-03-17T08:36:10.930Z,0.20
2023-03-17T08:38:38.230Z,0.20
2023-03-17T08:41:08.000Z,0.20
2023-03-17T08:43:36.113Z,0.20
2023-03-17T08:46:15.799Z,0.30
2023-03-17T08:48:43.058Z,0.20
2023-03-17T08:51:09.606Z,0.20
2023-03-17T08:53:36.266Z,0.20
2023-03-17T08:56:04.754Z,0.20
2023-03-17T08:58:31.498Z,0.30
2023-03-17T09:01:02.874Z,0.30
2023-03-17T09:03:30.777Z,0.20
2023-03-17T09:05:58.162Z,0.20
2023-03-17T09:08:24.911Z,0.20
2023-03-17T09:10:52.071Z,0.20
2023-03-17T09:13:19.175Z,0.20
2023-03-17T09:15:46.161Z,0.20
2023-03-17T09:18:12.994Z,0.20
2023-03-17T09:20:39.752Z,0.20
2023-03-17T09:23:10.671Z,0.43
2023-03-17T09:25:39.801Z,0.20
2023-03-17T09:28:07.315Z,0.20
2023-03-17T09:30:33.930Z,0.30
2023-03-17T09:33:00.808Z,0.20
2023-03-17T09:35:28.247Z,0.20
2023-03-17T09:37:54.996Z,0.20
2023-03-17T09:40:26.244Z,0.27
2023-03-17T09:43:22.231Z,0.10
2023-03-17T09:45:48.937Z,0.20
2023-03-17T09:48:34.726Z,0.20
2023-03-17T09:51:12.123Z,0.20
2023-03-17T09:53:47.968Z,0.20
2023-03-17T09:56:16.521Z,0.40
2023-03-17T09:58:51.394Z,0.23
2023-03-17T10:01:18.536Z,0.30
2023-03-17T10:03:45.232Z,0.50
2023-03-17T10:06:33.713Z,0.20
2023-03-17T10:09:13.750Z,0.20
2023-03-17T10:11:47.888Z,0.20
2023-03-17T10:14:51.032Z,0.20
2023-03-17T10:17:21.165Z,0.30
2023-03-17T10:19:54.445Z,0.20
2023-03-17T10:22:30.331Z,0.23
2023-03-17T10:25:07.517Z,0.20
2023-03-17T10:27:37.007Z,0.30
2023-03-17T10:30:15.020Z,0.20
2023-03-17T10:32:42.503Z,0.20
2023-03-17T10:35:11.578Z,0.20
2023-03-17T10:37:38.504Z,0.20
2023-03-17T10:40:10.395Z,0.20
2023-03-17T10:42:47.777Z,0.33
2023-03-17T10:45:32.502Z,0.30
2023-03-17T10:48:00.291Z,0.20
2023-03-17T10:50:34.686Z,0.30
2023-03-17T10:53:08.631Z,0.20
2023-03-17T10:55:38.107Z,0.30
2023-03-17T10:58:15.324Z,0.30
2023-03-17T11:00:56.911Z,8.50
2023-03-17T11:03:28.550Z,9.03
2023-03-17T11:06:04.026Z,6.53
2023-03-17T11:08:32.854Z,8.50
2023-03-17T11:10:59.943Z,10.23
2023-03-17T11:13:30.639Z,6.53
2023-03-17T11:16:04.417Z,9.10
2023-03-17T11:18:36.649Z,7.87
2023-03-17T11:21:10.169Z,6.30
2023-03-17T11:23:42.708Z,10.83
2023-03-17T11:26:27.711Z,10.03
2023-03-17T11:29:08.917Z,8.00
2023-03-17T11:31:47.855Z,8.50
2023-03-17T11:34:23.488Z,9.27
2023-03-17T11:37:10.240Z,8.53
2023-03-17T11:39:58.190Z,8.47
2023-03-17T11:42:41.021Z,10.03
2023-03-17T11:45:19.152Z,8.57
2023-03-17T11:48:14.112Z,9.57
2023-03-17T11:51:00.542Z,8.73
2023-03-17T11:53:30.114Z,10.03
2023-03-17T11:56:03.906Z,8.80
2023-03-17T11:58:39.884Z,9.20
2023-03-17T12:01:09.284Z,10.03
2023-03-17T12:03:36.666Z,12.43
2023-03-17T12:06:08.086Z,12.10
2023-03-17T12:08:49.226Z,10.63
2023-03-17T12:11:22.137Z,10.77
2023-03-17T12:13:53.377Z,10.60
2023-03-17T12:16:38.363Z,10.07
2023-03-17T12:19:21.902Z,10.40
2023-03-17T12:21:55.668Z,10.70
2023-03-17T12:25:06.019Z,9.03
2023-03-17T12:27:36.613Z,9.57
2023-03-17T12:30:20.885Z,12.00
2023-03-17T12:33:12.085Z,9.87
2023-03-17T12:35:39.448Z,9.30
2023-03-17T12:38:09.342Z,10.13
2023-03-17T12:40:54.619Z,11.55
2023-03-17T12:43:37.732Z,10.83
2023-03-17T12:46:16.003Z,10.37
2023-03-17T12:49:15.053Z,11.17
2023-03-17T12:51:51.124Z,10.57
2023-03-17T12:54:27.152Z,10.77
2023-03-17T12:56:54.221Z,9.30
2023-03-17T12:59:22.570Z,11.30
2023-03-17T13:01:58.538Z,11.13
2023-03-17T13:04:32.439Z,11.00
2023-03-17T13:07:14.275Z,11.60
2023-03-17T13:10:20.343Z,9.63
2023-03-17T13:12:46.993Z,11.13
2023-03-17T13:15:26.449Z,11.40
2023-03-17T13:18:16.584Z,10.90
2023-03-17T13:20:46.217Z,9.97
2023-03-17T13:23:16.023Z,10.07
2023-03-17T13:25:44.039Z,10.02
2023-03-17T13:28:13.763Z,10.80
2023-03-17T13:30:40.528Z,11.00
2023-03-17T13:33:10.176Z,11.07
2023-03-17T13:35:47.006Z,10.53
2023-03-17T13:38:35.516Z,10.20
2023-03-17T13:41:46.688Z,10.00
2023-03-17T13:44:29.096Z,10.27
2023-03-17T13:46:55.772Z,9.50
2023-03-17T13:49:27.866Z,9.60
2023-03-17T13:52:14.538Z,10.47
2023-03-17T13:54:49.149Z,11.13
2023-03-17T13:57:23.281Z,9.20
2023-03-17T14:00:00.932Z,8.90
2023-03-17T14:02:31.739Z,9.13
2023-03-17T14:05:04.967Z,10.30
2023-03-17T14:07:43.205Z,9.97
2023-03-17T14:10:17.528Z,10.17
2023-03-17T14:13:02.795Z,10.27
2023-03-17T14:15:40.732Z,9.70
2023-03-17T14:18:16.886Z,9.40
2023-03-17T14:21:00.787Z,10.70
2023-03-17T14:23:28.234Z,10.93
2023-03-17T14:25:56.538Z,15.60
2023-03-17T14:28:28.620Z,16.33
2023-03-17T14:31:00.565Z,14.23
2023-03-17T14:33:29.221Z,11.80
2023-03-17T14:36:01.187Z,9.87
2023-03-17T14:38:30.964Z,13.90
2023-03-17T14:41:04.373Z,15.47
2023-03-17T14:43:32.189Z,20.17
2023-03-17T14:46:06.785Z,11.07
2023-03-17T14:48:36.168Z,7.90
2023-03-17T14:51:08.904Z,10.10
2023-03-17T14:53:40.139Z,9.13
2023-03-17T14:56:07.526Z,12.00
2023-03-17T14:58:41.555Z,6.97
2023-03-17T15:01:15.611Z,8.43
2023-03-17T15:03:57.176Z,7.57
2023-03-17T15:06:26.638Z,10.33
2023-03-17T15:08:53.925Z,10.97
2023-03-17T15:11:23.519Z,10.07
2023-03-17T15:13:55.089Z,9.57
2023-03-17T15:16:25.889Z,9.60
2023-03-17T15:19:18.625Z,16.17
2023-03-17T15:21:45.463Z,20.90
2023-03-17T15:24:39.501Z,18.47
2023-03-17T15:27:17.526Z,15.93
2023-03-17T15:29:45.237Z,19.67
2023-03-17T15:32:11.996Z,40.07
2023-03-17T15:34:38.652Z,21.43
2023-03-17T15:37:21.635Z,16.47
2023-03-17T15:39:49.523Z,13.47
2023-03-17T15:42:18.680Z,21.30
2023-03-17T15:44:45.324Z,29.93
2023-03-17T15:47:16.710Z,44.90
2023-03-17T15:49:44.419Z,66.93
2023-03-17T15:52:29.276Z,17.50
2023-03-17T15:54:59.755Z,44.40
2023-03-17T15:57:29.313Z,37.87
2023-03-17T15:59:56.635Z,26.57
2023-03-17T16:02:32.656Z,37.03
2023-03-17T16:05:12.176Z,16.27
2023-03-17T16:07:38.818Z,26.33
2023-03-17T16:10:24.757Z,57.10
2023-03-17T16:12:51.431Z,27.27
2023-03-17T16:15:30.984Z,13.30
2023-03-17T16:17:59.515Z,17.80
2023-03-17T16:20:31.458Z,15.10
2023-03-17T16:23:04.878Z,10.50
2023-03-17T16:25:32.528Z,19.20
2023-03-17T16:28:01.256Z,8.70
2023-03-17T16:30:33.258Z,18.63
2023-03-17T16:33:12.650Z,17.53
2023-03-17T16:35:39.374Z,15.50
2023-03-17T16:38:06.902Z,27.77
2023-03-17T16:40:34.914Z,19.03
2023-03-17T16:43:10.375Z,10.90
2023-03-17T16:45:42.356Z,13.90
2023-03-17T16:48:13.571Z,46.50
2023-03-17T16:50:40.767Z,16.80
2023-03-17T16:53:07.536Z,8.70
2023-03-17T16:55:34.278Z,11.30
2023-03-17T16:58:27.903Z,8.82
2023-03-17T17:00:58.840Z,21.23
2023-03-17T17:03:25.721Z,16.37
2023-03-17T17:05:52.296Z,20.50
2023-03-17T17:08:18.949Z,14.73
2023-03-17T17:10:45.648Z,27.87
2023-03-17T17:13:12.627Z,23.27
2023-03-17T17:15:39.656Z,19.47
2023-03-17T17:18:11.484Z,42.00
2023-03-17T17:20:39.513Z,11.63
2023-03-17T17:23:11.502Z,39.20
2023-03-17T17:25:38.180Z,26.20
2023-03-17T17:28:05.209Z,17.30
2023-03-17T17:30:32.308Z,15.00
2023-03-17T17:33:00.477Z,17.10
2023-03-17T17:35:31.928Z,17.43
2023-03-17T17:37:59.786Z,14.27
2023-03-17T17:40:26.575Z,17.60
2023-03-17T17:42:54.042Z,18.23
2023-03-17T17:45:21.047Z,16.57
2023-03-17T17:47:48.006Z,15.90
2023-03-17T17:50:21.775Z,14.37
2023-03-17T17:52:48.408Z,15.20
2023-03-17T17:55:15.482Z,11.43
2023-03-17T17:57:42.163Z,17.20
2023-03-17T18:00:13.377Z,17.43
2023-03-17T18:02:40.019Z,19.13
2023-03-17T18:05:09.044Z,17.23
2023-03-17T18:07:36.171Z,16.10
2023-03-17T18:10:03.935Z,16.77
2023-03-17T18:12:30.803Z,16.50
2023-03-17T18:14:57.764Z,16.80
2023-03-17T18:17:24.722Z,27.83
2023-03-17T18:19:55.220Z,25.33
2023-03-17T18:22:22.657Z,19.53
2023-03-17T18:24:49.827Z,18.70
2023-03-17T18:27:17.026Z,24.47
2023-03-17T18:29:43.967Z,33.70
2023-03-17T18:32:12.245Z,21.27
2023-03-17T18:34:43.475Z,27.90
2023-03-17T18:37:12.471Z,29.03
2023-03-17T18:39:41.015Z,26.27
2023-03-17T18:42:08.487Z,34.67
2023-03-17T18:44:35.734Z,32.07
2023-03-17T18:47:05.158Z,34.80
2023-03-17T18:49:31.779Z,36.40
2023-03-17T18:51:59.590Z,75.23
2023-03-17T18:54:27.696Z,30.87
2023-03-17T18:56:55.013Z,30.07
2023-03-17T18:59:21.684Z,27.77
2023-03-17T19:01:48.298Z,28.73
2023-03-17T19:04:14.892Z,34.23
2023-03-17T19:06:42.670Z,45.10
2023-03-17T19:09:10.255Z,40.90
2023-03-17T19:11:39.278Z,45.70
2023-03-17T19:14:07.188Z,45.00
2023-03-17T19:16:34.637Z,38.10
2023-03-17T19:19:01.738Z,30.07
2023-03-17T19:21:28.708Z,26.77
2023-03-17T19:23:59.324Z,35.77
2023-03-17T19:26:26.074Z,160.40
2023-03-17T19:28:56.145Z,34.07
2023-03-17T19:31:24.791Z,30.50
2023-03-17T19:33:51.907Z,34.80
2023-03-17T19:36:19.832Z,36.43
2023-03-17T19:38:46.470Z,29.43
2023-03-17T19:41:14.763Z,25.47
2023-03-17T19:43:41.877Z,26.93
2023-03-17T19:46:10.063Z,28.17
2023-03-17T19:48:37.516Z,36.43
2023-03-17T19:51:04.528Z,24.83
2023-03-17T19:53:31.408Z,22.77
2023-03-17T19:56:06.734Z,27.99
2023-03-17T19:58:33.387Z,77.97
2023-03-17T20:01:00.024Z,27.67
2023-03-17T20:03:26.711Z,66.30
2023-03-17T20:05:53.652Z,19.27
2023-03-17T20:08:22.472Z,20.00
2023-03-17T20:10:53.995Z,17.67
2023-03-17T20:13:21.953Z,17.03
2023-03-17T20:15:50.181Z,18.23
2023-03-17T20:18:17.525Z,18.27
2023-03-17T20:20:49.472Z,20.10
2023-03-17T20:23:16.905Z,20.50
2023-03-17T20:25:43.975Z,44.57
2023-03-17T20:28:11.471Z,36.33
2023-03-17T20:30:39.376Z,30.10
2023-03-17T20:33:08.278Z,25.60
2023-03-17T20:35:36.512Z,27.57
2023-03-17T20:38:03.128Z,53.10
2023-03-17T20:40:30.068Z,54.43
2023-03-17T20:42:57.175Z,22.60
2023-03-17T20:45:24.457Z,94.03
2023-03-17T20:47:51.149Z,54.77
2023-03-17T20:50:17.921Z,27.80
2023-03-17T20:52:44.553Z,36.33
2023-03-17T20:55:14.500Z,112.17
2023-03-17T20:57:42.340Z,47.70
2023-03-17T21:00:13.127Z,30.30
2023-03-17T21:02:39.846Z,41.20
2023-03-17T21:05:07.475Z,117.67
2023-03-17T21:07:34.043Z,41.03
2023-03-17T21:10:02.153Z,35.60
2023-03-17T21:12:28.892Z,68.57
2023-03-17T21:14:55.877Z,204.97
2023-03-17T21:17:22.905Z,91.70
2023-03-17T21:19:49.596Z,100.10
2023-03-17T21:22:16.190Z,63.97
2023-03-17T21:24:42.788Z,100.80
2023-03-17T21:27:11.237Z,29.50
2023-03-17T21:29:38.816Z,76.87
2023-03-17T21:32:07.324Z,49.47
2023-03-17T21:34:36.919Z,29.87
2023-03-17T21:37:03.610Z,24.60
2023-03-17T21:39:30.225Z,34.93
2023-03-17T21:41:57.609Z,26.13
2023-03-17T21:44:24.608Z,34.43
2023-03-17T21:46:51.309Z,56.10
2023-03-17T21:49:18.874Z,38.03
2023-03-17T21:51:46.787Z,37.13
2023-03-17T21:54:14.335Z,29.47
2023-03-17T21:56:41.787Z,37.13
2023-03-17T21:59:11.169Z,35.73
2023-03-17T22:01:41.884Z,27.80
2023-03-17T22:04:09.398Z,23.93
2023-03-17T22:06:36.317Z,27.27
2023-03-17T22:09:04.466Z,19.63
2023-03-17T22:11:31.408Z,20.50
2023-03-17T22:13:58.688Z,23.00
2023-03-17T22:16:25.563Z,23.60
2023-03-17T22:18:52.756Z,16.90
2023-03-17T22:21:21.480Z,16.50
2023-03-17T22:23:48.446Z,18.17
2023-03-17T22:26:19.664Z,15.67
2023-03-17T22:28:48.208Z,15.50
2023-03-17T22:31:16.946Z,25.50
2023-03-17T22:33:44.201Z,19.33
2023-03-17T22:36:11.022Z,17.43
2023-03-17T22:38:37.789Z,19.23
2023-03-17T22:41:13.900Z,19.30
2023-03-17T22:43:41.729Z,20.80
2023-03-17T22:46:09.620Z,19.97
2023-03-17T22:48:36.772Z,20.80
2023-03-17T22:51:05.808Z,18.50
2023-03-17T22:53:33.135Z,27.90
2023-03-17T22:56:00.149Z,20.97
2023-03-17T22:58:27.456Z,32.80
2023-03-17T23:00:55.374Z,29.93
2023-03-17T23:03:23.319Z,22.80
2023-03-17T23:05:53.754Z,14.87
2023-03-17T23:08:21.497Z,12.87
2023-03-17T23:10:50.051Z,12.87
2023-03-17T23:13:20.941Z,16.83
2023-03-17T23:15:48.911Z,12.70
2023-03-17T23:18:15.547Z,14.30
2023-03-17T23:20:42.373Z,13.70
2023-03-17T23:23:10.685Z,14.87
2023-03-17T23:25:38.392Z,14.07
2023-03-17T23:28:05.855Z,12.57
2023-03-17T23:30:32.652Z,13.53
2023-03-17T23:32:59.651Z,14.20
2023-03-17T23:35:26.334Z,14.70
2023-03-17T23:37:52.970Z,16.13
2023-03-17T23:40:23.699Z,14.30
2023-03-17T23:42:50.651Z,14.50
2023-03-17T23:45:18.210Z,14.23
2023-03-17T23:47:46.766Z,15.63
2023-03-17T23:50:14.588Z,15.40
2023-03-17T23:52:42.492Z,15.77
2023-03-17T23:55:10.390Z,17.47
2023-03-17T23:57:37.900Z,18.33
